createdAt,value
2022-09-03T03:58:18.654Z,0.00
2022-09-03T03:59:18.654Z,0.00
2022-09-03T04:00:17.032Z,0.00
2022-09-03T04:01:17.122Z,0.00
2022-09-03T04:02:17.060Z,0.00
2022-09-03T04:03:18.160Z,0.00
2022-09-03T04:04:17.001Z,0.00
2022-09-03T04:05:16.995Z,0.00
2022-09-03T04:06:16.989Z,0.00
2022-09-03T04:07:17.000Z,0.00
2022-09-03T04:08:18.662Z,0.00
2022-09-03T04:09:18.662Z,0.00
2022-09-03T04:10:17.970Z,0.00
2022-09-03T04:11:18.652Z,0.00
2022-09-03T04:12:18.663Z,0.00
2022-09-03T04:13:18.665Z,0.00
2022-09-03T04:14:18.652Z,4.00
2022-09-03T04:15:18.667Z,4.00
2022-09-03T04:16:18.768Z,0.00
2022-09-03T04:17:23.243Z,4.00
2022-09-03T04:18:18.653Z,4.00
2022-09-03T04:19:18.689Z,4.00
2022-09-03T04:20:18.673Z,4.00
2022-09-03T04:21:18.659Z,4.00
2022-09-03T04:22:18.702Z,8.00
2022-09-03T04:23:18.663Z,4.00
2022-09-03T04:24:18.673Z,8.00
2022-09-03T04:25:18.662Z,12.00
2022-09-03T04:26:18.670Z,12.00
2022-09-03T04:27:18.671Z,12.00
2022-09-03T04:28:18.688Z,16.00
2022-09-03T04:29:18.678Z,20.00
2022-09-03T04:30:18.667Z,20.00
2022-09-03T04:31:18.748Z,24.00
2022-09-03T04:32:18.675Z,24.00
2022-09-03T04:33:18.670Z,32.00
2022-09-03T04:34:18.669Z,32.00
2022-09-03T04:35:16.888Z,40.00
2022-09-03T04:36:18.682Z,44.00
2022-09-03T04:37:16.880Z,48.00
2022-09-03T04:38:16.875Z,52.00
2022-09-03T04:39:16.954Z,60.00
2022-09-03T04:40:18.686Z,64.00
2022-09-03T04:41:17.867Z,72.00
2022-09-03T04:42:16.863Z,80.00
2022-09-03T04:43:17.865Z,84.00
2022-09-03T04:44:16.859Z,92.00
2022-09-03T04:45:18.746Z,100.00
2022-09-03T04:46:18.521Z,108.00
2022-09-03T04:47:16.852Z,116.00
2022-09-03T04:48:16.847Z,124.00
2022-09-03T04:49:18.681Z,132.00
2022-09-03T04:50:16.840Z,144.00
2022-09-03T04:51:18.694Z,152.00
2022-09-03T04:52:16.835Z,160.00
2022-09-03T04:53:16.832Z,172.00
2022-09-03T04:54:18.687Z,184.00
2022-09-03T04:55:18.700Z,192.00
2022-09-03T04:56:17.827Z,204.00
2022-09-03T04:57:18.701Z,212.00
2022-09-03T04:58:16.817Z,224.00
2022-09-03T04:59:16.824Z,236.00
2022-09-03T05:00:16.810Z,248.00
2022-09-03T05:01:18.792Z,256.00
2022-09-03T05:02:18.741Z,272.00
2022-09-03T05:03:17.803Z,280.00
2022-09-03T05:04:16.800Z,292.00
2022-09-03T05:05:18.708Z,304.00
2022-09-03T05:06:17.796Z,316.00
2022-09-03T05:07:18.716Z,324.00
2022-09-03T05:08:16.794Z,336.00
2022-09-03T05:09:16.785Z,352.00
2022-09-03T05:10:18.718Z,360.00
2022-09-03T05:11:18.699Z,372.00
2022-09-03T05:12:18.711Z,384.00
2022-09-03T05:13:18.703Z,392.00
2022-09-03T05:14:18.716Z,404.00
2022-09-03T05:15:18.703Z,416.00
2022-09-03T05:16:18.775Z,424.00
2022-09-03T05:17:18.722Z,436.00
2022-09-03T05:18:16.766Z,448.00
2022-09-03T05:19:18.726Z,460.00
2022-09-03T05:20:18.706Z,468.00
2022-09-03T05:21:18.706Z,476.00
2022-09-03T05:22:18.708Z,488.00
2022-09-03T05:23:18.728Z,500.00
2022-09-03T05:24:18.755Z,508.00
2022-09-03T05:25:18.711Z,516.00
2022-09-03T05:26:18.712Z,524.00
2022-09-03T05:27:18.731Z,536.00
2022-09-03T05:28:18.714Z,540.00
2022-09-03T05:29:18.235Z,552.00
2022-09-03T05:30:18.717Z,560.00
2022-09-03T05:31:18.343Z,568.00
2022-09-03T05:32:18.245Z,576.00
2022-09-03T05:33:18.215Z,584.00
2022-09-03T05:34:18.533Z,592.00
2022-09-03T05:35:18.625Z,600.00
2022-09-03T05:36:18.221Z,608.00
2022-09-03T05:37:18.232Z,620.00
2022-09-03T05:38:18.220Z,624.00
2022-09-03T05:39:18.347Z,636.00
2022-09-03T05:40:18.226Z,644.00
2022-09-03T05:41:18.837Z,648.00
2022-09-03T05:42:18.238Z,660.00
2022-09-03T05:43:18.228Z,672.00
2022-09-03T05:44:18.227Z,688.00
2022-09-03T05:45:18.226Z,708.00
2022-09-03T05:46:18.243Z,728.00
2022-09-03T05:47:18.240Z,752.00
2022-09-03T05:48:18.228Z,788.00
2022-09-03T05:49:18.231Z,832.00
2022-09-03T05:50:18.230Z,960.00
2022-09-03T05:51:18.234Z,1108.00
2022-09-03T05:52:18.245Z,1212.00
2022-09-03T05:53:18.247Z,1344.00
2022-09-03T05:54:18.236Z,1476.00
2022-09-03T05:55:18.246Z,1584.00
2022-09-03T05:56:18.240Z,1672.00
2022-09-03T05:57:18.251Z,1788.00
2022-09-03T05:58:18.236Z,1868.00
2022-09-03T05:59:18.243Z,1944.00
2022-09-03T06:00:18.243Z,1956.00
2022-09-03T06:01:18.259Z,2036.00
2022-09-03T06:02:18.325Z,2108.00
2022-09-03T06:03:18.363Z,2140.00
2022-09-03T06:04:18.242Z,2160.00
2022-09-03T06:05:18.254Z,2200.00
2022-09-03T06:06:16.625Z,2256.00
2022-09-03T06:07:16.625Z,2312.00
2022-09-03T06:08:18.269Z,2324.00
2022-09-03T06:09:16.616Z,2356.00
2022-09-03T06:10:16.622Z,2384.00
2022-09-03T06:11:16.614Z,2384.00
2022-09-03T06:12:16.619Z,2412.00
2022-09-03T06:13:16.618Z,2452.00
2022-09-03T06:14:18.271Z,2500.00
2022-09-03T06:15:16.625Z,2488.00
2022-09-03T06:16:18.292Z,2524.00
2022-09-03T06:17:16.597Z,2588.00
2022-09-03T06:18:18.268Z,2644.00
2022-09-03T06:19:16.599Z,2676.00
2022-09-03T06:20:18.255Z,2720.00
2022-09-03T06:21:16.588Z,2760.00
2022-09-03T06:22:18.257Z,2804.00
2022-09-03T06:23:18.273Z,2848.00
2022-09-03T06:24:16.594Z,2768.00
2022-09-03T06:25:18.256Z,2716.00
2022-09-03T06:26:16.578Z,2876.00
2022-09-03T06:27:18.288Z,2944.00
2022-09-03T06:28:16.575Z,2972.00
2022-09-03T06:29:16.575Z,2932.00
2022-09-03T06:30:16.582Z,2748.00
2022-09-03T06:31:16.642Z,2808.00
2022-09-03T06:32:18.284Z,2992.00
2022-09-03T06:33:16.563Z,2836.00
2022-09-03T06:34:18.283Z,2888.00
2022-09-03T06:35:16.565Z,3056.00
2022-09-03T06:36:16.559Z,3084.00
2022-09-03T06:37:18.285Z,3124.00
2022-09-03T06:38:16.557Z,3160.00
2022-09-03T06:39:18.411Z,3268.00
2022-09-03T06:40:16.553Z,3316.00
2022-09-03T06:41:16.583Z,3280.00
2022-09-03T06:42:18.289Z,3216.00
2022-09-03T06:43:16.559Z,3348.00
2022-09-03T06:44:18.291Z,3436.00
2022-09-03T06:45:16.545Z,3424.00
2022-09-03T06:46:18.295Z,3472.00
2022-09-03T06:47:18.296Z,3512.00
2022-09-03T06:48:18.286Z,3516.00
2022-09-03T06:49:18.284Z,3604.00
2022-09-03T06:50:18.298Z,3644.00
2022-09-03T06:51:18.295Z,3676.00
2022-09-03T06:52:18.283Z,3704.00
2022-09-03T06:53:18.298Z,3708.00
2022-09-03T06:54:18.299Z,3716.00
2022-09-03T06:55:18.287Z,3740.00
2022-09-03T06:56:18.287Z,3768.00
2022-09-03T06:57:18.301Z,3808.00
2022-09-03T06:58:18.288Z,3828.00
2022-09-03T06:59:18.296Z,3844.00
2022-09-03T07:00:18.303Z,3864.00
2022-09-03T07:01:18.458Z,3892.00
2022-09-03T07:02:18.434Z,3896.00
2022-09-03T07:03:18.294Z,3904.00
2022-09-03T07:04:19.377Z,3924.00
2022-09-03T07:05:18.295Z,3932.00
2022-09-03T07:06:18.297Z,3964.00
2022-09-03T07:07:18.298Z,3984.00
2022-09-03T07:08:18.299Z,4000.00
2022-09-03T07:09:18.476Z,4012.00
2022-09-03T07:10:18.312Z,4020.00
2022-09-03T07:11:18.305Z,4032.00
2022-09-03T07:12:18.324Z,4044.00
2022-09-03T07:13:16.513Z,4044.00
2022-09-03T07:14:16.517Z,4052.00
2022-09-03T07:15:18.328Z,4040.00
2022-09-03T07:16:16.630Z,4044.00
2022-09-03T07:17:18.307Z,4056.00
2022-09-03T07:18:16.548Z,4076.00
2022-09-03T07:19:18.324Z,4064.00
2022-09-03T07:20:18.310Z,4056.00
2022-09-03T07:21:16.507Z,4052.00
2022-09-03T07:22:18.312Z,4064.00
2022-09-03T07:23:18.312Z,4068.00
2022-09-03T07:24:18.418Z,4080.00
2022-09-03T07:25:18.315Z,4100.00
2022-09-03T07:26:18.324Z,4088.00
2022-09-03T07:27:18.330Z,4108.00
2022-09-03T07:28:18.316Z,4116.00
2022-09-03T07:29:18.317Z,4128.00
2022-09-03T07:30:18.331Z,4128.00
2022-09-03T07:31:18.334Z,4124.00
2022-09-03T07:32:18.320Z,4060.00
2022-09-03T07:33:18.330Z,3996.00
2022-09-03T07:34:18.338Z,4060.00
2022-09-03T07:35:16.506Z,4096.00
2022-09-03T07:36:16.502Z,4112.00
2022-09-03T07:37:18.336Z,4112.00
2022-09-03T07:38:16.518Z,4092.00
2022-09-03T07:39:16.704Z,4088.00
2022-09-03T07:40:18.342Z,4088.00
2022-09-03T07:41:17.618Z,4088.00
2022-09-03T07:42:16.510Z,4080.00
2022-09-03T07:43:16.503Z,4100.00
2022-09-03T07:44:16.536Z,4100.00
2022-09-03T07:45:18.347Z,4088.00
2022-09-03T07:46:16.598Z,4076.00
2022-09-03T07:47:16.504Z,4060.00
2022-09-03T07:48:16.504Z,4060.00
2022-09-03T07:49:18.348Z,4040.00
2022-09-03T07:50:18.351Z,3964.00
2022-09-03T07:51:16.502Z,3948.00
2022-09-03T07:52:18.338Z,3968.00
2022-09-03T07:53:16.503Z,3976.00
2022-09-03T07:54:18.345Z,4020.00
2022-09-03T07:55:18.354Z,4016.00
2022-09-03T07:56:16.513Z,3984.00
2022-09-03T07:57:18.363Z,3968.00
2022-09-03T07:58:16.503Z,3952.00
2022-09-03T07:59:18.362Z,3952.00
2022-09-03T08:00:16.505Z,3924.00
2022-09-03T08:01:19.405Z,3776.00
2022-09-03T08:02:16.508Z,3820.00
2022-09-03T08:03:18.365Z,3876.00
2022-09-03T08:04:18.355Z,3872.00
2022-09-03T08:05:18.364Z,3856.00
2022-09-03T08:06:18.395Z,3848.00
2022-09-03T08:07:18.355Z,3776.00
2022-09-03T08:08:18.355Z,3816.00
2022-09-03T08:09:18.357Z,3840.00
2022-09-03T08:10:18.372Z,3816.00
2022-09-03T08:11:18.359Z,3804.00
2022-09-03T08:12:18.362Z,3780.00
2022-09-03T08:13:18.378Z,3764.00
2022-09-03T08:14:18.358Z,3748.00
2022-09-03T08:15:18.379Z,3732.00
2022-09-03T08:16:18.419Z,3720.00
2022-09-03T08:17:18.376Z,3704.00
2022-09-03T08:18:18.364Z,3684.00
2022-09-03T08:19:18.632Z,3656.00
2022-09-03T08:20:18.385Z,3636.00
2022-09-03T08:21:18.379Z,3616.00
2022-09-03T08:22:18.374Z,3600.00
2022-09-03T08:23:18.408Z,3580.00
2022-09-03T08:24:18.370Z,3560.00
2022-09-03T08:25:18.386Z,3548.00
2022-09-03T08:26:18.372Z,3536.00
2022-09-03T08:27:18.374Z,3520.00
2022-09-03T08:28:18.375Z,3496.00
2022-09-03T08:29:18.386Z,3480.00
2022-09-03T08:30:18.382Z,3464.00
2022-09-03T08:31:18.420Z,3436.00
2022-09-03T08:32:18.380Z,3428.00
2022-09-03T08:33:18.379Z,3416.00
2022-09-03T08:34:18.385Z,3392.00
2022-09-03T08:35:18.382Z,3372.00
2022-09-03T08:36:18.396Z,3356.00
2022-09-03T08:37:18.384Z,3344.00
2022-09-03T08:38:18.384Z,3332.00
2022-09-03T08:39:18.455Z,3316.00
2022-09-03T08:40:18.388Z,3296.00
2022-09-03T08:41:18.399Z,3280.00
2022-09-03T08:42:16.531Z,3260.00
2022-09-03T08:43:16.533Z,3248.00
2022-09-03T08:44:16.540Z,3236.00
2022-09-03T08:45:16.533Z,3220.00
2022-09-03T08:46:18.456Z,3200.00
2022-09-03T08:47:16.539Z,3192.00
2022-09-03T08:48:16.571Z,3160.00
2022-09-03T08:49:18.410Z,3120.00
2022-09-03T08:50:16.539Z,3128.00
2022-09-03T08:51:16.542Z,3124.00
2022-09-03T08:52:18.397Z,3112.00
2022-09-03T08:53:18.414Z,3092.00
2022-09-03T08:54:18.401Z,3076.00
2022-09-03T08:55:18.418Z,3056.00
2022-09-03T08:56:18.422Z,3044.00
2022-09-03T08:57:18.406Z,3028.00
2022-09-03T08:58:16.646Z,3020.00
2022-09-03T08:59:18.406Z,3000.00
2022-09-03T09:00:18.411Z,2988.00
2022-09-03T09:01:18.481Z,2972.00
2022-09-03T09:02:18.543Z,2968.00
2022-09-03T09:03:18.410Z,2944.00
2022-09-03T09:04:18.411Z,2944.00
2022-09-03T09:05:16.562Z,2936.00
2022-09-03T09:06:18.425Z,2920.00
2022-09-03T09:07:16.558Z,2916.00
2022-09-03T09:08:18.435Z,2904.00
2022-09-03T09:09:16.576Z,2892.00
2022-09-03T09:10:18.479Z,2884.00
2022-09-03T09:11:18.437Z,2876.00
2022-09-03T09:12:16.565Z,2868.00
2022-09-03T09:13:16.563Z,2860.00
2022-09-03T09:14:16.603Z,2852.00
2022-09-03T09:15:18.448Z,2848.00
2022-09-03T09:16:16.642Z,2840.00
2022-09-03T09:17:16.588Z,2824.00
2022-09-03T09:18:16.670Z,2824.00
2022-09-03T09:19:16.575Z,2820.00
2022-09-03T09:20:18.545Z,2804.00
2022-09-03T09:21:20.927Z,2796.00
2022-09-03T09:22:16.596Z,2788.00
2022-09-03T09:23:16.581Z,2784.00
2022-09-03T09:24:18.447Z,2772.00
2022-09-03T09:25:18.449Z,2764.00
2022-09-03T09:26:16.586Z,2756.00
2022-09-03T09:27:18.442Z,2752.00
2022-09-03T09:28:16.587Z,2744.00
2022-09-03T09:29:18.488Z,2736.00
2022-09-03T09:30:18.597Z,2724.00
2022-09-03T09:31:18.519Z,2712.00
2022-09-03T09:32:16.595Z,2708.00
2022-09-03T09:33:18.446Z,2700.00
2022-09-03T09:34:16.597Z,2692.00
2022-09-03T09:35:18.447Z,2696.00
2022-09-03T09:36:18.458Z,2692.00
2022-09-03T09:37:16.604Z,2684.00
2022-09-03T09:38:18.456Z,2676.00
2022-09-03T09:39:16.682Z,2676.00
2022-09-03T09:40:18.464Z,2660.00
2022-09-03T09:41:18.467Z,2664.00
2022-09-03T09:42:16.612Z,2664.00
2022-09-03T09:43:18.450Z,2676.00
2022-09-03T09:44:16.619Z,2676.00
2022-09-03T09:45:18.452Z,2688.00
2022-09-03T09:46:18.527Z,2696.00
2022-09-03T09:47:16.624Z,2696.00
2022-09-03T09:48:18.456Z,2700.00
2022-09-03T09:49:16.625Z,2700.00
2022-09-03T09:50:24.860Z,2708.00
2022-09-03T09:51:16.633Z,2712.00
2022-09-03T09:52:16.631Z,2712.00
2022-09-03T09:53:16.638Z,2724.00
2022-09-03T09:54:18.462Z,2732.00
2022-09-03T09:55:18.473Z,2736.00
2022-09-03T09:56:18.480Z,2740.00
2022-09-03T09:57:18.473Z,2744.00
2022-09-03T09:58:18.465Z,2740.00
2022-09-03T09:59:18.467Z,2756.00
2022-09-03T10:00:18.467Z,2768.00
2022-09-03T10:01:18.528Z,2776.00
2022-09-03T10:12:36.181Z,2916.00
2022-09-03T10:13:36.167Z,2928.00
2022-09-03T10:14:36.186Z,2940.00
2022-09-03T10:15:34.667Z,2952.00
2022-09-03T10:16:36.171Z,2964.00
2022-09-03T10:17:37.328Z,2976.00
2022-09-03T10:18:36.186Z,2992.00
2022-09-03T10:19:36.180Z,3008.00
2022-09-03T10:20:36.179Z,3012.00
2022-09-03T10:21:36.191Z,3028.00
2022-09-03T10:22:36.191Z,3044.00
2022-09-03T10:23:36.179Z,3056.00
2022-09-03T10:24:36.182Z,3064.00
2022-09-03T10:25:36.186Z,3072.00
2022-09-03T10:26:36.184Z,3088.00
2022-09-03T10:27:36.195Z,3100.00
2022-09-03T10:28:36.192Z,3108.00
2022-09-03T10:29:36.189Z,3120.00
2022-09-03T10:30:36.204Z,3132.00
2022-09-03T10:31:36.257Z,3144.00
2022-09-03T10:32:39.018Z,3160.00
2022-09-03T10:33:36.204Z,3180.00
2022-09-03T10:34:36.210Z,3192.00
2022-09-03T10:35:34.628Z,3212.00
2022-09-03T10:36:34.633Z,3224.00
2022-09-03T10:37:34.635Z,3244.00
2022-09-03T10:38:36.209Z,3260.00
2022-09-03T10:39:42.638Z,3272.00
2022-09-03T10:40:34.643Z,3284.00
2022-09-03T10:41:36.198Z,3304.00
2022-09-03T10:42:36.199Z,3324.00
2022-09-03T10:43:36.225Z,3340.00
2022-09-03T10:44:36.206Z,3348.00
2022-09-03T10:45:38.680Z,3368.00
2022-09-03T10:46:36.247Z,3388.00
2022-09-03T10:47:36.204Z,3404.00
2022-09-03T10:48:34.677Z,3424.00
2022-09-03T10:49:36.226Z,3440.00
2022-09-03T10:50:34.686Z,3464.00
2022-09-03T10:51:34.693Z,3484.00
2022-09-03T10:52:36.211Z,3504.00
2022-09-03T10:53:36.211Z,3528.00
2022-09-03T10:54:36.231Z,3552.00
2022-09-03T10:55:34.702Z,3572.00
2022-09-03T10:56:34.705Z,3584.00
2022-09-03T10:57:34.712Z,3620.00
2022-09-03T10:58:34.734Z,3636.00
2022-09-03T10:59:36.236Z,3652.00
2022-09-03T11:00:34.724Z,3700.00
2022-09-03T11:01:34.768Z,3720.00
2022-09-03T11:02:34.807Z,3752.00
2022-09-03T11:03:34.737Z,3784.00
2022-09-03T11:04:36.737Z,3820.00
2022-09-03T11:05:36.736Z,3840.00
2022-09-03T11:06:34.752Z,3868.00
2022-09-03T11:07:34.751Z,3892.00
2022-09-03T11:08:36.743Z,3924.00
2022-09-03T11:09:34.762Z,3956.00
2022-09-03T11:10:34.767Z,3968.00
2022-09-03T11:11:36.746Z,4016.00
2022-09-03T11:12:35.782Z,4040.00
2022-09-03T11:13:34.781Z,4072.00
2022-09-03T11:14:36.749Z,4112.00
2022-09-03T11:15:34.816Z,4124.00
2022-09-03T11:16:34.795Z,4168.00
2022-09-03T11:17:36.753Z,4176.00
2022-09-03T11:18:34.831Z,4208.00
2022-09-03T11:19:36.751Z,4232.00
2022-09-03T11:20:34.819Z,4296.00
2022-09-03T11:21:36.765Z,4336.00
2022-09-03T11:22:34.824Z,4380.00
2022-09-03T11:23:36.747Z,4432.00
2022-09-03T11:24:35.885Z,4484.00
2022-09-03T11:25:34.841Z,4532.00
2022-09-03T11:26:36.763Z,4576.00
2022-09-03T11:27:34.863Z,4628.00
2022-09-03T11:28:36.752Z,4672.00
2022-09-03T11:29:34.904Z,4712.00
2022-09-03T11:30:36.816Z,4732.00
2022-09-03T11:31:36.269Z,4788.00
2022-09-03T11:32:34.880Z,4844.00
2022-09-03T11:33:36.786Z,4896.00
2022-09-03T11:34:34.892Z,4964.00
2022-09-03T11:35:36.763Z,5036.00
2022-09-03T11:36:36.790Z,5112.00
2022-09-03T11:37:34.914Z,5156.00
2022-09-03T11:38:34.914Z,5236.00
2022-09-03T11:39:36.885Z,5348.00
2022-09-03T11:40:34.926Z,5464.00
2022-09-03T11:41:36.785Z,5516.00
2022-09-03T11:42:36.769Z,5640.00
2022-09-03T11:43:36.773Z,5652.00
2022-09-03T11:44:36.772Z,5852.00
2022-09-03T11:45:36.786Z,5964.00
2022-09-03T11:46:36.827Z,5976.00
2022-09-03T11:47:36.774Z,6004.00
2022-09-03T11:48:36.792Z,6084.00
2022-09-03T11:49:36.782Z,6212.00
2022-09-03T11:51:36.806Z,6276.00
2022-09-03T11:52:36.790Z,6288.00
2022-09-03T11:53:36.797Z,6340.00
2022-09-03T11:54:36.784Z,6364.00
2022-09-03T11:55:43.645Z,6412.00
2022-09-03T11:56:36.800Z,6444.00
2022-09-03T11:57:36.805Z,6512.00
2022-09-03T11:58:36.790Z,6512.00
2022-09-03T11:59:36.800Z,6468.00
2022-09-03T12:00:35.064Z,6728.00
2022-09-03T12:01:36.811Z,6900.00
2022-09-03T12:02:35.110Z,7008.00
2022-09-03T12:03:35.093Z,7144.00
2022-09-03T12:04:35.113Z,7236.00
2022-09-03T12:05:35.095Z,7272.00
2022-09-03T12:06:36.822Z,7344.00
2022-09-03T12:07:35.110Z,7436.00
2022-09-03T12:08:35.118Z,7564.00
2022-09-03T12:09:35.125Z,7636.00
2022-09-03T12:10:35.131Z,7684.00
2022-09-03T12:11:36.822Z,7748.00
2022-09-03T12:12:35.147Z,7824.00
2022-09-03T12:13:35.159Z,7940.00
2022-09-03T12:14:36.808Z,8020.00
2022-09-03T12:15:36.896Z,8140.00
2022-09-03T12:16:36.817Z,8268.00
2022-09-03T12:17:36.826Z,8392.00
2022-09-03T12:18:36.818Z,8492.00
2022-09-03T12:19:36.830Z,8596.00
2022-09-03T12:20:36.841Z,8644.00
2022-09-03T12:21:36.820Z,8752.00
2022-09-03T12:22:36.819Z,8932.00
2022-09-03T12:23:36.826Z,9100.00
2022-09-03T12:24:38.220Z,9264.00
2022-09-03T12:25:36.832Z,9616.00
2022-09-03T12:26:36.823Z,9864.00
2022-09-03T12:27:36.837Z,10280.00
2022-09-03T12:28:36.830Z,10624.00
2022-09-03T12:29:36.839Z,10868.00
2022-09-03T12:30:36.891Z,11024.00
2022-09-03T12:31:40.093Z,11256.00
2022-09-03T12:32:36.834Z,11456.00
2022-09-03T12:33:36.833Z,11200.00
2022-09-03T12:34:36.847Z,5884.00
2022-09-03T12:36:37.337Z,5344.00
2022-09-03T12:39:00.758Z,5788.00
2022-09-03T12:41:26.663Z,8448.00
2022-09-03T12:41:37.471Z,8684.00
2022-09-03T12:42:37.361Z,12164.00
2022-09-03T12:43:39.352Z,13336.00
2022-09-03T12:44:35.419Z,13268.00
2022-09-03T12:46:35.483Z,12976.00
2022-09-03T12:47:37.975Z,8484.00
2022-09-03T12:48:35.449Z,12756.00
2022-09-03T12:49:35.456Z,12692.00
2022-09-03T12:50:35.465Z,13160.00
2022-09-03T12:51:56.086Z,12304.00
2022-09-03T12:52:37.372Z,13096.00
2022-09-03T12:53:36.487Z,11608.00
2022-09-03T12:54:35.503Z,13552.00
2022-09-03T12:55:37.482Z,10472.00
2022-09-03T12:56:35.528Z,9716.00
2022-09-03T12:57:37.377Z,11468.00
2022-09-03T12:58:35.533Z,7164.00
2022-09-03T12:59:35.542Z,8820.00
2022-09-03T13:00:37.387Z,9160.00
2022-09-03T13:01:35.645Z,14708.00
2022-09-03T13:02:35.568Z,9684.00
2022-09-03T13:03:35.611Z,6980.00
2022-09-03T13:04:37.389Z,7668.00
2022-09-03T13:05:37.256Z,8492.00
2022-09-03T13:06:37.388Z,7476.00
2022-09-03T13:07:36.615Z,7868.00
2022-09-03T13:08:36.626Z,7552.00
2022-09-03T13:09:36.627Z,7904.00
2022-09-03T13:10:37.047Z,9568.00
2022-09-03T13:11:35.646Z,14272.00
2022-09-03T13:12:35.655Z,15288.00
2022-09-03T13:13:37.382Z,15936.00
2022-09-03T13:14:35.666Z,14520.00
2022-09-03T13:15:37.405Z,16284.00
2022-09-03T13:16:37.465Z,16168.00
2022-09-03T13:17:36.708Z,16560.00
2022-09-03T13:18:37.402Z,10788.00
2022-09-03T13:19:37.392Z,8944.00
2022-09-03T13:20:37.395Z,13632.00
2022-09-03T13:21:37.415Z,15924.00
2022-09-03T13:22:35.737Z,16192.00
2022-09-03T13:23:37.408Z,15892.00
2022-09-03T13:24:37.398Z,15488.00
2022-09-03T13:25:37.437Z,16424.00
2022-09-03T13:26:35.760Z,11224.00
2022-09-03T13:27:37.407Z,20448.00
2022-09-03T13:28:37.421Z,38368.00
2022-09-03T13:29:35.786Z,51968.00
2022-09-03T13:30:37.435Z,55104.00
2022-09-03T13:31:37.406Z,56416.00
2022-09-03T13:32:35.813Z,55520.00
2022-09-03T13:33:37.422Z,7808.00
2022-09-03T13:34:37.437Z,30624.00
2022-09-03T13:35:35.839Z,31040.00
2022-09-03T13:36:37.429Z,28128.00
2022-09-03T13:37:37.413Z,50016.00
2022-09-03T13:38:37.701Z,50496.00
2022-09-03T13:39:37.469Z,46624.00
2022-09-03T13:40:37.424Z,10116.00
2022-09-03T13:41:37.423Z,17288.00
2022-09-03T13:42:35.910Z,8364.00
2022-09-03T13:43:37.433Z,9616.00
2022-09-03T13:44:37.422Z,20000.00
2022-09-03T13:45:37.471Z,16932.00
2022-09-03T13:46:37.938Z,20672.00
2022-09-03T13:47:35.955Z,20384.00
2022-09-03T13:48:35.959Z,20128.00
2022-09-03T13:49:37.930Z,20704.00
2022-09-03T13:50:37.945Z,20608.00
2022-09-03T13:51:37.968Z,20288.00
2022-09-03T13:52:37.933Z,26176.00
2022-09-03T13:53:37.937Z,32704.00
2022-09-03T13:54:53.267Z,44000.00
2022-09-03T13:55:37.951Z,52768.00
2022-09-03T13:56:37.952Z,7648.00
2022-09-03T13:57:37.938Z,51040.00
2022-09-03T13:58:37.942Z,8780.00
2022-09-03T13:59:37.944Z,8068.00
2022-09-03T14:00:37.942Z,6672.00
2022-09-03T14:01:38.036Z,5964.00
2022-09-03T14:02:38.009Z,5640.00
2022-09-03T14:03:37.958Z,4856.00
2022-09-03T14:04:37.950Z,4436.00
2022-09-03T14:05:37.953Z,4280.00
2022-09-03T14:06:37.951Z,4156.00
2022-09-03T14:07:37.973Z,4112.00
2022-09-03T14:08:39.058Z,4172.00
2022-09-03T14:09:36.152Z,4284.00
2022-09-03T14:10:36.160Z,4196.00
2022-09-03T14:11:37.971Z,4040.00
2022-09-03T14:12:36.181Z,4308.00
2022-09-03T14:13:36.189Z,4472.00
2022-09-03T14:14:36.192Z,5484.00
2022-09-03T14:15:38.797Z,5760.00
2022-09-03T14:16:38.075Z,5644.00
2022-09-03T14:17:36.216Z,6372.00
2022-09-03T14:18:36.221Z,7788.00
2022-09-03T14:19:36.223Z,8572.00
2022-09-03T14:20:37.974Z,10424.00
2022-09-03T14:21:37.983Z,10852.00
2022-09-03T14:22:37.972Z,9352.00
2022-09-03T14:23:37.972Z,9232.00
2022-09-03T14:24:37.991Z,9352.00
2022-09-03T14:25:37.988Z,9196.00
2022-09-03T14:26:40.120Z,10172.00
2022-09-03T14:27:37.990Z,17620.00
2022-09-03T14:28:37.981Z,14992.00
2022-09-03T14:29:37.986Z,17032.00
2022-09-03T14:30:36.280Z,14672.00
2022-09-03T14:31:37.359Z,49056.00
2022-09-03T14:32:42.323Z,47072.00
2022-09-03T14:33:37.994Z,49440.00
2022-09-03T14:34:36.300Z,42624.00
2022-09-03T14:35:36.307Z,38176.00
2022-09-03T14:36:36.313Z,45952.00
2022-09-03T14:37:37.326Z,49056.00
2022-09-03T14:38:38.014Z,48320.00
2022-09-03T14:39:37.570Z,46464.00
2022-09-03T14:40:36.336Z,12968.00
2022-09-03T14:41:37.346Z,10092.00
2022-09-03T14:42:36.349Z,8216.00
2022-09-03T14:43:38.026Z,9212.00
2022-09-03T14:44:36.372Z,20288.00
2022-09-03T14:45:38.048Z,28064.00
2022-09-03T14:46:37.385Z,34304.00
2022-09-03T14:47:38.017Z,35456.00
2022-09-03T14:48:37.385Z,16276.00
2022-09-03T14:49:36.405Z,29344.00
2022-09-03T14:50:38.003Z,16804.00
2022-09-03T14:51:38.009Z,9032.00
2022-09-03T14:52:38.024Z,7876.00
2022-09-03T14:53:38.023Z,7160.00
2022-09-03T14:54:38.014Z,6948.00
2022-09-03T14:55:38.016Z,6860.00
2022-09-03T14:56:38.012Z,14176.00
2022-09-03T14:57:38.023Z,7304.00
2022-09-03T14:58:38.023Z,8436.00
2022-09-03T14:59:38.022Z,7604.00
2022-09-03T15:00:38.082Z,21664.00
2022-09-03T15:01:39.586Z,35648.00
2022-09-03T15:02:38.131Z,37216.00
2022-09-03T15:03:38.020Z,37472.00
2022-09-03T15:04:38.023Z,38112.00
2022-09-03T15:05:38.072Z,39680.00
2022-09-03T15:06:38.043Z,38912.00
2022-09-03T15:07:38.030Z,37504.00
2022-09-03T15:08:38.033Z,36544.00
2022-09-03T15:09:38.025Z,37600.00
2022-09-03T15:10:38.083Z,35616.00
2022-09-03T15:11:38.045Z,35776.00
2022-09-03T15:12:38.043Z,36896.00
2022-09-03T15:13:38.033Z,35232.00
2022-09-03T15:14:36.545Z,32896.00
2022-09-03T15:15:38.046Z,23392.00
2022-09-03T15:16:38.116Z,15092.00
2022-09-03T15:17:36.553Z,16072.00
2022-09-03T15:18:36.562Z,17408.00
2022-09-03T15:19:36.560Z,6712.00
2022-09-03T15:20:38.599Z,8364.00
2022-09-03T15:21:36.580Z,23680.00
2022-09-03T15:22:36.578Z,26400.00
2022-09-03T15:23:38.542Z,27360.00
2022-09-03T15:24:38.559Z,28288.00
2022-09-03T15:25:38.545Z,25504.00
2022-09-03T15:26:38.575Z,22368.00
2022-09-03T15:27:38.549Z,21696.00
2022-09-03T15:28:38.564Z,8768.00
2022-09-03T15:29:38.552Z,6180.00
2022-09-03T15:30:38.652Z,15488.00
2022-09-03T15:31:38.580Z,6676.00
2022-09-03T15:32:38.597Z,11592.00
2022-09-03T15:33:38.628Z,6640.00
2022-09-03T15:34:38.567Z,6348.00
2022-09-03T15:35:38.617Z,7020.00
2022-09-03T15:36:36.663Z,6864.00
2022-09-03T15:37:38.567Z,6844.00
2022-09-03T15:38:38.073Z,6960.00
2022-09-03T15:39:36.690Z,6480.00
2022-09-03T15:40:36.675Z,6228.00
2022-09-03T15:41:36.679Z,5996.00
2022-09-03T15:42:36.696Z,5816.00
2022-09-03T15:43:38.090Z,5560.00
2022-09-03T15:44:36.692Z,5388.00
2022-09-03T15:45:36.890Z,5336.00
2022-09-03T15:46:36.705Z,5364.00
2022-09-03T15:47:51.441Z,5308.00
2022-09-03T15:48:38.588Z,5152.00
2022-09-03T15:49:36.731Z,4792.00
2022-09-03T15:50:36.721Z,4368.00
2022-09-03T15:51:36.737Z,3968.00
2022-09-03T15:52:36.741Z,3860.00
2022-09-03T15:53:36.732Z,3936.00
2022-09-03T15:54:38.601Z,4204.00
2022-09-03T15:55:38.586Z,4208.00
2022-09-03T15:56:38.585Z,4144.00
2022-09-03T15:57:38.584Z,4248.00
2022-09-03T15:58:38.101Z,4312.00
2022-09-03T15:59:36.756Z,4260.00
2022-09-03T16:11:55.590Z,3340.00
2022-09-03T16:12:54.008Z,3416.00
2022-09-03T16:13:54.008Z,3604.00
2022-09-03T16:14:54.012Z,3652.00
2022-09-03T16:15:54.109Z,3468.00
2022-09-03T16:16:55.588Z,3356.00
2022-09-03T16:17:54.009Z,3268.00
2022-09-03T16:18:55.593Z,3228.00
2022-09-03T16:19:55.592Z,3100.00
2022-09-03T16:20:55.099Z,2912.00
2022-09-03T16:21:54.019Z,2692.00
2022-09-03T16:22:54.018Z,2492.00
2022-09-03T16:23:54.020Z,2392.00
2022-09-03T16:24:54.039Z,2372.00
2022-09-03T16:25:55.601Z,2324.00
2022-09-03T16:26:55.603Z,2228.00
2022-09-03T16:27:54.032Z,2136.00
2022-09-03T16:28:54.033Z,2016.00
2022-09-03T16:29:54.035Z,1856.00
2022-09-03T16:30:55.604Z,1708.00
2022-09-03T16:31:54.097Z,1580.00